sensor_id;sensor_type;location;lat;lon;timestamp;P1;durP1;ratioP1;P2;durP2;ratioP2
53751;SDS011;41095;53.090;6.692;2023-02-19T00:01:08;18.10;;;10.65;;
53751;SDS011;41095;53.090;6.692;2023-02-19T00:03:35;12.68;;;8.88;;
53751;SDS011;41095;53.090;6.692;2023-02-19T00:06:02;12.70;;;8.02;;
53751;SDS011;41095;53.090;6.692;2023-02-19T00:08:33;14.98;;;7.90;;
53751;SDS011;41095;53.090;6.692;2023-02-19T00:11:04;11.63;;;8.57;;
53751;SDS011;41095;53.090;6.692;2023-02-19T00:13:36;13.43;;;7.68;;
53751;SDS011;41095;53.090;6.692;2023-02-19T00:16:09;12.50;;;7.60;;
53751;SDS011;41095;53.090;6.692;2023-02-19T00:18:38;10.68;;;7.97;;
53751;SDS011;41095;53.090;6.692;2023-02-19T00:21:04;12.48;;;9.20;;
53751;SDS011;41095;53.090;6.692;2023-02-19T00:23:30;9.55;;;7.20;;
53751;SDS011;41095;53.090;6.692;2023-02-19T00:26:00;15.05;;;8.32;;
53751;SDS011;41095;53.090;6.692;2023-02-19T00:28:30;13.65;;;8.70;;
53751;SDS011;41095;53.090;6.692;2023-02-19T00:31:02;13.48;;;8.38;;
53751;SDS011;41095;53.090;6.692;2023-02-19T00:33:41;12.23;;;7.45;;
53751;SDS011;41095;53.090;6.692;2023-02-19T00:36:07;9.65;;;7.15;;
53751;SDS011;41095;53.090;6.692;2023-02-19T00:38:37;11.20;;;8.10;;
53751;SDS011;41095;53.090;6.692;2023-02-19T00:41:04;13.60;;;8.63;;
53751;SDS011;41095;53.090;6.692;2023-02-19T00:49:00;10.88;;;8.10;;
53751;SDS011;41095;53.090;6.692;2023-02-19T00:51:28;14.60;;;10.80;;
53751;SDS011;41095;53.090;6.692;2023-02-19T00:53:56;14.15;;;8.65;;
53751;SDS011;41095;53.090;6.692;2023-02-19T00:56:22;17.30;;;8.18;;
53751;SDS011;41095;53.090;6.692;2023-02-19T00:58:48;12.70;;;8.32;;
53751;SDS011;41095;53.090;6.692;2023-02-19T01:01:14;12.68;;;9.50;;
53751;SDS011;41095;53.090;6.692;2023-02-19T01:03:40;12.15;;;8.65;;
53751;SDS011;41095;53.090;6.692;2023-02-19T01:06:07;8.73;;;7.45;;
53751;SDS011;41095;53.090;6.692;2023-02-19T01:08:33;13.82;;;8.35;;
53751;SDS011;41095;53.090;6.692;2023-02-19T01:11:00;14.57;;;8.70;;
53751;SDS011;41095;53.090;6.692;2023-02-19T01:13:26;12.13;;;8.57;;
53751;SDS011;41095;53.090;6.692;2023-02-19T01:15:53;14.82;;;8.68;;
53751;SDS011;41095;53.090;6.692;2023-02-19T01:18:26;12.90;;;8.13;;
53751;SDS011;41095;53.090;6.692;2023-02-19T01:20:51;10.93;;;8.43;;
53751;SDS011;41095;53.090;6.692;2023-02-19T01:23:17;14.32;;;8.95;;
53751;SDS011;41095;53.090;6.692;2023-02-19T01:25:43;17.25;;;9.32;;
53751;SDS011;41095;53.090;6.692;2023-02-19T01:28:09;12.57;;;9.25;;
53751;SDS011;41095;53.090;6.692;2023-02-19T01:30:35;13.32;;;9.85;;
53751;SDS011;41095;53.090;6.692;2023-02-19T01:33:05;16.67;;;8.73;;
53751;SDS011;41095;53.090;6.692;2023-02-19T01:35:32;14.43;;;9.35;;
53751;SDS011;41095;53.090;6.692;2023-02-19T01:37:58;13.38;;;8.02;;
53751;SDS011;41095;53.090;6.692;2023-02-19T01:40:24;16.27;;;9.35;;
53751;SDS011;41095;53.090;6.692;2023-02-19T01:42:51;20.33;;;10.13;;
53751;SDS011;41095;53.090;6.692;2023-02-19T01:50:25;14.15;;;8.38;;
53751;SDS011;41095;53.090;6.692;2023-02-19T01:52:54;15.02;;;9.07;;
53751;SDS011;41095;53.090;6.692;2023-02-19T01:55:20;13.88;;;8.88;;
53751;SDS011;41095;53.090;6.692;2023-02-19T01:57:47;12.60;;;7.72;;
53751;SDS011;41095;53.090;6.692;2023-02-19T02:00:16;14.02;;;8.48;;
53751;SDS011;41095;53.090;6.692;2023-02-19T02:02:44;17.70;;;8.15;;
53751;SDS011;41095;53.090;6.692;2023-02-19T02:08:06;11.18;;;7.78;;
53751;SDS011;41095;53.090;6.692;2023-02-19T02:11:04;3.53;;;2.65;;
53751;SDS011;41095;53.090;6.692;2023-02-19T02:13:31;3.17;;;2.17;;
53751;SDS011;41095;53.090;6.692;2023-02-19T02:16:02;5.57;;;2.00;;
53751;SDS011;41095;53.090;6.692;2023-02-19T02:18:53;1.63;;;1.25;;
53751;SDS011;41095;53.090;6.692;2023-02-19T02:32:25;1.08;;;0.98;;
53751;SDS011;41095;53.090;6.692;2023-02-19T02:34:58;1.85;;;1.30;;
53751;SDS011;41095;53.090;6.692;2023-02-19T02:37:28;1.17;;;1.15;;
53751;SDS011;41095;53.090;6.692;2023-02-19T02:39:58;1.00;;;1.00;;
53751;SDS011;41095;53.090;6.692;2023-02-19T02:42:26;1.00;;;1.00;;
53751;SDS011;41095;53.090;6.692;2023-02-19T02:44:51;2.15;;;1.10;;
53751;SDS011;41095;53.090;6.692;2023-02-19T02:47:38;0.88;;;0.80;;
53751;SDS011;41095;53.090;6.692;2023-02-19T02:50:17;1.90;;;1.10;;
53751;SDS011;41095;53.090;6.692;2023-02-19T02:53:06;1.03;;;0.80;;
53751;SDS011;41095;53.090;6.692;2023-02-19T02:55:55;1.48;;;1.00;;
53751;SDS011;41095;53.090;6.692;2023-02-19T02:58:24;2.13;;;1.02;;
53751;SDS011;41095;53.090;6.692;2023-02-19T03:00:53;1.15;;;0.93;;
53751;SDS011;41095;53.090;6.692;2023-02-19T03:03:45;1.50;;;1.05;;
53751;SDS011;41095;53.090;6.692;2023-02-19T03:06:15;1.98;;;1.13;;
53751;SDS011;41095;53.090;6.692;2023-02-19T03:08:57;2.25;;;1.38;;
53751;SDS011;41095;53.090;6.692;2023-02-19T03:11:47;1.80;;;1.55;;
53751;SDS011;41095;53.090;6.692;2023-02-19T03:14:42;1.38;;;1.27;;
53751;SDS011;41095;53.090;6.692;2023-02-19T03:17:32;1.90;;;1.00;;
53751;SDS011;41095;53.090;6.692;2023-02-19T03:20:22;1.27;;;1.17;;
53751;SDS011;41095;53.090;6.692;2023-02-19T03:22:49;1.83;;;1.00;;
53751;SDS011;41095;53.090;6.692;2023-02-19T03:25:24;1.30;;;1.13;;
53751;SDS011;41095;53.090;6.692;2023-02-19T03:28:11;1.75;;;1.45;;
53751;SDS011;41095;53.090;6.692;2023-02-19T03:30:43;1.60;;;1.40;;
53751;SDS011;41095;53.090;6.692;2023-02-19T03:33:21;2.85;;;1.60;;
53751;SDS011;41095;53.090;6.692;2023-02-19T03:35:51;3.00;;;1.88;;
53751;SDS011;41095;53.090;6.692;2023-02-19T03:38:25;1.67;;;1.58;;
53751;SDS011;41095;53.090;6.692;2023-02-19T03:41:00;3.50;;;1.67;;
53751;SDS011;41095;53.090;6.692;2023-02-19T03:43:51;1.70;;;1.60;;
53751;SDS011;41095;53.090;6.692;2023-02-19T03:46:41;2.45;;;2.10;;
53751;SDS011;41095;53.090;6.692;2023-02-19T03:52:00;2.10;;;1.98;;
53751;SDS011;41095;53.090;6.692;2023-02-19T03:55:02;3.03;;;2.53;;
53751;SDS011;41095;53.090;6.692;2023-02-19T04:01:20;3.83;;;2.80;;
53751;SDS011;41095;53.090;6.692;2023-02-19T04:03:53;3.08;;;2.58;;
53751;SDS011;41095;53.090;6.692;2023-02-19T04:06:33;3.33;;;2.70;;
53751;SDS011;41095;53.090;6.692;2023-02-19T04:09:02;3.53;;;2.85;;
53751;SDS011;41095;53.090;6.692;2023-02-19T04:11:32;6.22;;;3.67;;
53751;SDS011;41095;53.090;6.692;2023-02-19T04:14:08;4.43;;;3.55;;
53751;SDS011;41095;53.090;6.692;2023-02-19T04:16:58;6.45;;;4.15;;
53751;SDS011;41095;53.090;6.692;2023-02-19T04:19:27;6.28;;;4.07;;
53751;SDS011;41095;53.090;6.692;2023-02-19T04:21:57;3.10;;;2.78;;
53751;SDS011;41095;53.090;6.692;2023-02-19T04:24:26;3.85;;;2.55;;
53751;SDS011;41095;53.090;6.692;2023-02-19T04:26:58;3.13;;;2.75;;
53751;SDS011;41095;53.090;6.692;2023-02-19T04:29:25;2.92;;;2.60;;
53751;SDS011;41095;53.090;6.692;2023-02-19T04:31:50;3.08;;;2.55;;
53751;SDS011;41095;53.090;6.692;2023-02-19T04:34:16;4.35;;;3.13;;
53751;SDS011;41095;53.090;6.692;2023-02-19T04:36:42;3.63;;;3.08;;
53751;SDS011;41095;53.090;6.692;2023-02-19T04:39:07;3.85;;;3.10;;
53751;SDS011;41095;53.090;6.692;2023-02-19T04:41:33;3.80;;;3.50;;
53751;SDS011;41095;53.090;6.692;2023-02-19T04:43:59;4.03;;;3.38;;
53751;SDS011;41095;53.090;6.692;2023-02-19T04:46:24;3.85;;;3.28;;
53751;SDS011;41095;53.090;6.692;2023-02-19T04:48:50;6.07;;;3.38;;
53751;SDS011;41095;53.090;6.692;2023-02-19T04:51:16;4.05;;;3.45;;
53751;SDS011;41095;53.090;6.692;2023-02-19T04:53:42;4.43;;;3.30;;
53751;SDS011;41095;53.090;6.692;2023-02-19T04:56:09;5.20;;;3.70;;
53751;SDS011;41095;53.090;6.692;2023-02-19T04:58:39;5.75;;;4.18;;
53751;SDS011;41095;53.090;6.692;2023-02-19T05:01:06;5.72;;;4.05;;
53751;SDS011;41095;53.090;6.692;2023-02-19T05:03:32;5.78;;;4.65;;
53751;SDS011;41095;53.090;6.692;2023-02-19T05:06:02;7.70;;;5.82;;
53751;SDS011;41095;53.090;6.692;2023-02-19T05:08:29;6.30;;;5.28;;
53751;SDS011;41095;53.090;6.692;2023-02-19T05:10:58;7.18;;;5.78;;
53751;SDS011;41095;53.090;6.692;2023-02-19T05:13:25;8.25;;;5.70;;
53751;SDS011;41095;53.090;6.692;2023-02-19T05:18:21;5.88;;;4.68;;
53751;SDS011;41095;53.090;6.692;2023-02-19T05:20:47;6.80;;;5.32;;
53751;SDS011;41095;53.090;6.692;2023-02-19T05:23:13;8.00;;;5.80;;
53751;SDS011;41095;53.090;6.692;2023-02-19T05:25:39;10.48;;;6.03;;
53751;SDS011;41095;53.090;6.692;2023-02-19T05:28:04;11.40;;;6.35;;
53751;SDS011;41095;53.090;6.692;2023-02-19T05:30:46;7.90;;;5.70;;
53751;SDS011;41095;53.090;6.692;2023-02-19T05:35:46;8.50;;;5.85;;
53751;SDS011;41095;53.090;6.692;2023-02-19T05:38:14;7.70;;;5.93;;
53751;SDS011;41095;53.090;6.692;2023-02-19T05:40:40;8.25;;;5.60;;
53751;SDS011;41095;53.090;6.692;2023-02-19T05:43:07;6.57;;;5.70;;
53751;SDS011;41095;53.090;6.692;2023-02-19T05:45:33;5.18;;;3.35;;
53751;SDS011;41095;53.090;6.692;2023-02-19T05:47:59;3.88;;;3.38;;
53751;SDS011;41095;53.090;6.692;2023-02-19T05:50:25;4.90;;;2.53;;
53751;SDS011;41095;53.090;6.692;2023-02-19T05:52:51;2.75;;;2.10;;
53751;SDS011;41095;53.090;6.692;2023-02-19T05:55:17;2.40;;;2.08;;
53751;SDS011;41095;53.090;6.692;2023-02-19T05:57:43;4.35;;;2.42;;
53751;SDS011;41095;53.090;6.692;2023-02-19T06:00:12;3.00;;;2.40;;
53751;SDS011;41095;53.090;6.692;2023-02-19T06:02:39;3.72;;;2.47;;
53751;SDS011;41095;53.090;6.692;2023-02-19T06:05:05;2.60;;;2.40;;
53751;SDS011;41095;53.090;6.692;2023-02-19T06:07:32;2.75;;;2.30;;
53751;SDS011;41095;53.090;6.692;2023-02-19T06:09:58;2.97;;;2.60;;
53751;SDS011;41095;53.090;6.692;2023-02-19T06:12:23;3.63;;;2.25;;
53751;SDS011;41095;53.090;6.692;2023-02-19T06:14:49;6.38;;;2.83;;
53751;SDS011;41095;53.090;6.692;2023-02-19T06:17:15;3.70;;;2.55;;
53751;SDS011;41095;53.090;6.692;2023-02-19T06:19:41;3.35;;;3.05;;
53751;SDS011;41095;53.090;6.692;2023-02-19T06:22:07;3.45;;;2.72;;
53751;SDS011;41095;53.090;6.692;2023-02-19T06:24:33;3.80;;;2.55;;
53751;SDS011;41095;53.090;6.692;2023-02-19T06:27:04;4.35;;;3.05;;
53751;SDS011;41095;53.090;6.692;2023-02-19T06:29:30;3.30;;;2.38;;
53751;SDS011;41095;53.090;6.692;2023-02-19T06:31:57;3.15;;;2.72;;
53751;SDS011;41095;53.090;6.692;2023-02-19T06:34:23;3.83;;;2.75;;
53751;SDS011;41095;53.090;6.692;2023-02-19T06:36:49;2.78;;;2.45;;
53751;SDS011;41095;53.090;6.692;2023-02-19T06:39:15;3.22;;;2.38;;
53751;SDS011;41095;53.090;6.692;2023-02-19T06:41:41;3.45;;;2.72;;
53751;SDS011;41095;53.090;6.692;2023-02-19T06:44:06;2.40;;;2.17;;
53751;SDS011;41095;53.090;6.692;2023-02-19T06:46:32;3.90;;;2.35;;
53751;SDS011;41095;53.090;6.692;2023-02-19T06:48:58;2.75;;;2.20;;
53751;SDS011;41095;53.090;6.692;2023-02-19T06:51:24;2.85;;;2.30;;
53751;SDS011;41095;53.090;6.692;2023-02-19T06:53:52;3.78;;;2.58;;
53751;SDS011;41095;53.090;6.692;2023-02-19T06:56:22;8.00;;;2.30;;
53751;SDS011;41095;53.090;6.692;2023-02-19T06:58:53;3.30;;;2.35;;
53751;SDS011;41095;53.090;6.692;2023-02-19T07:01:20;4.55;;;2.60;;
53751;SDS011;41095;53.090;6.692;2023-02-19T07:03:47;4.80;;;2.60;;
53751;SDS011;41095;53.090;6.692;2023-02-19T07:06:13;3.80;;;2.50;;
53751;SDS011;41095;53.090;6.692;2023-02-19T07:08:39;5.65;;;2.00;;
53751;SDS011;41095;53.090;6.692;2023-02-19T07:11:05;1.88;;;1.77;;
53751;SDS011;41095;53.090;6.692;2023-02-19T07:13:30;4.05;;;2.17;;
53751;SDS011;41095;53.090;6.692;2023-02-19T07:15:58;3.42;;;2.08;;
53751;SDS011;41095;53.090;6.692;2023-02-19T07:18:25;5.35;;;2.30;;
53751;SDS011;41095;53.090;6.692;2023-02-19T07:20:52;3.83;;;2.35;;
53751;SDS011;41095;53.090;6.692;2023-02-19T07:23:17;3.50;;;2.28;;
53751;SDS011;41095;53.090;6.692;2023-02-19T07:25:43;2.92;;;2.25;;
53751;SDS011;41095;53.090;6.692;2023-02-19T07:28:09;3.22;;;2.22;;
53751;SDS011;41095;53.090;6.692;2023-02-19T07:30:34;6.63;;;2.90;;
53751;SDS011;41095;53.090;6.692;2023-02-19T07:33:00;3.53;;;2.47;;
53751;SDS011;41095;53.090;6.692;2023-02-19T07:35:26;2.90;;;2.20;;
53751;SDS011;41095;53.090;6.692;2023-02-19T07:37:52;2.53;;;2.08;;
53751;SDS011;41095;53.090;6.692;2023-02-19T07:40:17;4.45;;;2.58;;
53751;SDS011;41095;53.090;6.692;2023-02-19T07:42:43;3.53;;;2.20;;
53751;SDS011;41095;53.090;6.692;2023-02-19T07:45:09;4.43;;;2.28;;
53751;SDS011;41095;53.090;6.692;2023-02-19T07:47:34;4.55;;;2.80;;
53751;SDS011;41095;53.090;6.692;2023-02-19T07:50:00;5.65;;;2.45;;
53751;SDS011;41095;53.090;6.692;2023-02-19T07:52:26;4.45;;;2.33;;
53751;SDS011;41095;53.090;6.692;2023-02-19T07:54:52;4.38;;;2.03;;
53751;SDS011;41095;53.090;6.692;2023-02-19T07:57:18;4.40;;;2.38;;
53751;SDS011;41095;53.090;6.692;2023-02-19T07:59:43;3.15;;;2.10;;
53751;SDS011;41095;53.090;6.692;2023-02-19T08:02:13;4.85;;;2.65;;
53751;SDS011;41095;53.090;6.692;2023-02-19T08:05:02;3.40;;;2.30;;
53751;SDS011;41095;53.090;6.692;2023-02-19T08:07:33;3.80;;;2.72;;
53751;SDS011;41095;53.090;6.692;2023-02-19T08:09:59;8.02;;;3.28;;
53751;SDS011;41095;53.090;6.692;2023-02-19T08:12:44;4.03;;;2.63;;
53751;SDS011;41095;53.090;6.692;2023-02-19T08:15:37;6.43;;;3.08;;
53751;SDS011;41095;53.090;6.692;2023-02-19T08:18:02;7.22;;;4.35;;
53751;SDS011;41095;53.090;6.692;2023-02-19T08:20:28;6.15;;;3.70;;
53751;SDS011;41095;53.090;6.692;2023-02-19T08:22:53;5.75;;;3.53;;
53751;SDS011;41095;53.090;6.692;2023-02-19T08:25:19;7.05;;;3.65;;
53751;SDS011;41095;53.090;6.692;2023-02-19T08:27:45;4.72;;;3.63;;
53751;SDS011;41095;53.090;6.692;2023-02-19T08:30:10;7.15;;;3.75;;
53751;SDS011;41095;53.090;6.692;2023-02-19T08:32:36;4.35;;;2.70;;
53751;SDS011;41095;53.090;6.692;2023-02-19T08:35:02;6.13;;;2.40;;
53751;SDS011;41095;53.090;6.692;2023-02-19T08:37:28;4.85;;;3.13;;
53751;SDS011;41095;53.090;6.692;2023-02-19T08:39:54;8.30;;;3.17;;
53751;SDS011;41095;53.090;6.692;2023-02-19T08:42:19;3.78;;;2.40;;
53751;SDS011;41095;53.090;6.692;2023-02-19T08:44:45;2.97;;;2.78;;
53751;SDS011;41095;53.090;6.692;2023-02-19T08:47:11;2.95;;;2.65;;
53751;SDS011;41095;53.090;6.692;2023-02-19T08:49:36;4.40;;;2.13;;
53751;SDS011;41095;53.090;6.692;2023-02-19T08:52:02;4.93;;;2.53;;
53751;SDS011;41095;53.090;6.692;2023-02-19T08:54:28;4.82;;;3.20;;
53751;SDS011;41095;53.090;6.692;2023-02-19T08:56:54;5.70;;;3.17;;
53751;SDS011;41095;53.090;6.692;2023-02-19T08:59:20;5.65;;;4.00;;
53751;SDS011;41095;53.090;6.692;2023-02-19T09:01:46;7.88;;;4.32;;
53751;SDS011;41095;53.090;6.692;2023-02-19T09:04:11;8.88;;;4.82;;
53751;SDS011;41095;53.090;6.692;2023-02-19T09:06:37;6.95;;;4.25;;
53751;SDS011;41095;53.090;6.692;2023-02-19T09:09:03;4.45;;;3.55;;
53751;SDS011;41095;53.090;6.692;2023-02-19T09:11:29;6.90;;;3.80;;
53751;SDS011;41095;53.090;6.692;2023-02-19T09:13:55;5.10;;;3.08;;
53751;SDS011;41095;53.090;6.692;2023-02-19T09:16:21;1.90;;;1.80;;
53751;SDS011;41095;53.090;6.692;2023-02-19T09:18:47;3.58;;;2.72;;
53751;SDS011;41095;53.090;6.692;2023-02-19T09:21:13;6.30;;;3.22;;
53751;SDS011;41095;53.090;6.692;2023-02-19T09:23:39;6.47;;;2.70;;
53751;SDS011;41095;53.090;6.692;2023-02-19T09:26:05;3.47;;;2.33;;
53751;SDS011;41095;53.090;6.692;2023-02-19T09:28:34;4.97;;;2.95;;
53751;SDS011;41095;53.090;6.692;2023-02-19T09:31:07;3.53;;;2.47;;
53751;SDS011;41095;53.090;6.692;2023-02-19T09:33:35;2.47;;;2.28;;
53751;SDS011;41095;53.090;6.692;2023-02-19T09:36:01;3.72;;;1.90;;
53751;SDS011;41095;53.090;6.692;2023-02-19T09:38:27;2.85;;;2.20;;
53751;SDS011;41095;53.090;6.692;2023-02-19T09:40:57;2.30;;;2.10;;
53751;SDS011;41095;53.090;6.692;2023-02-19T09:43:29;2.75;;;1.90;;
53751;SDS011;41095;53.090;6.692;2023-02-19T09:46:00;3.95;;;3.05;;
53751;SDS011;41095;53.090;6.692;2023-02-19T09:48:30;4.63;;;2.55;;
53751;SDS011;41095;53.090;6.692;2023-02-19T09:50:56;3.45;;;2.33;;
53751;SDS011;41095;53.090;6.692;2023-02-19T09:53:24;3.33;;;2.08;;
53751;SDS011;41095;53.090;6.692;2023-02-19T09:55:53;3.08;;;1.88;;
53751;SDS011;41095;53.090;6.692;2023-02-19T09:58:26;4.30;;;1.90;;
53751;SDS011;41095;53.090;6.692;2023-02-19T10:00:56;4.72;;;1.30;;
53751;SDS011;41095;53.090;6.692;2023-02-19T10:03:35;4.88;;;1.70;;
53751;SDS011;41095;53.090;6.692;2023-02-19T10:06:06;9.40;;;2.53;;
53751;SDS011;41095;53.090;6.692;2023-02-19T10:08:38;1.63;;;1.00;;
53751;SDS011;41095;53.090;6.692;2023-02-19T10:11:04;2.20;;;1.15;;
53751;SDS011;41095;53.090;6.692;2023-02-19T10:13:41;3.15;;;1.75;;
53751;SDS011;41095;53.090;6.692;2023-02-19T10:16:19;1.95;;;1.23;;
53751;SDS011;41095;53.090;6.692;2023-02-19T10:18:49;1.33;;;0.90;;
53751;SDS011;41095;53.090;6.692;2023-02-19T10:21:19;1.77;;;0.90;;
53751;SDS011;41095;53.090;6.692;2023-02-19T10:23:49;1.88;;;0.82;;
53751;SDS011;41095;53.090;6.692;2023-02-19T10:26:18;2.00;;;1.42;;
53751;SDS011;41095;53.090;6.692;2023-02-19T10:28:44;1.45;;;1.25;;
53751;SDS011;41095;53.090;6.692;2023-02-19T10:31:14;1.42;;;0.90;;
53751;SDS011;41095;53.090;6.692;2023-02-19T10:36:24;1.52;;;0.75;;
53751;SDS011;41095;53.090;6.692;2023-02-19T10:38:56;1.52;;;0.80;;
53751;SDS011;41095;53.090;6.692;2023-02-19T10:41:23;1.98;;;1.00;;
53751;SDS011;41095;53.090;6.692;2023-02-19T10:46:36;1.50;;;0.95;;
53751;SDS011;41095;53.090;6.692;2023-02-19T10:54:34;2.65;;;0.77;;
53751;SDS011;41095;53.090;6.692;2023-02-19T10:57:21;1.80;;;0.73;;
53751;SDS011;41095;53.090;6.692;2023-02-19T11:00:00;2.17;;;1.13;;
53751;SDS011;41095;53.090;6.692;2023-02-19T11:02:42;3.08;;;0.90;;
53751;SDS011;41095;53.090;6.692;2023-02-19T11:07:45;3.17;;;0.82;;
53751;SDS011;41095;53.090;6.692;2023-02-19T11:10:29;2.55;;;1.20;;
53751;SDS011;41095;53.090;6.692;2023-02-19T11:13:01;1.60;;;0.98;;
53751;SDS011;41095;53.090;6.692;2023-02-19T11:15:34;1.27;;;0.80;;
53751;SDS011;41095;53.090;6.692;2023-02-19T11:20:49;5.38;;;1.00;;
53751;SDS011;41095;53.090;6.692;2023-02-19T11:23:27;3.35;;;0.88;;
53751;SDS011;41095;53.090;6.692;2023-02-19T11:26:05;1.63;;;0.80;;
53751;SDS011;41095;53.090;6.692;2023-02-19T11:28:40;1.08;;;0.85;;
53751;SDS011;41095;53.090;6.692;2023-02-19T11:31:26;2.30;;;1.05;;
53751;SDS011;41095;53.090;6.692;2023-02-19T11:33:59;2.90;;;1.00;;
53751;SDS011;41095;53.090;6.692;2023-02-19T11:36:36;2.83;;;1.10;;
53751;SDS011;41095;53.090;6.692;2023-02-19T11:39:11;1.02;;;0.90;;
53751;SDS011;41095;53.090;6.692;2023-02-19T11:44:56;3.20;;;0.93;;
53751;SDS011;41095;53.090;6.692;2023-02-19T11:56:05;3.65;;;1.10;;
53751;SDS011;41095;53.090;6.692;2023-02-19T12:29:21;2.00;;;0.82;;
53751;SDS011;41095;53.090;6.692;2023-02-19T12:45:57;0.63;;;0.63;;
53751;SDS011;41095;53.090;6.692;2023-02-19T12:51:25;5.50;;;0.90;;
53751;SDS011;41095;53.090;6.692;2023-02-19T12:54:01;2.75;;;0.82;;
53751;SDS011;41095;53.090;6.692;2023-02-19T13:01:53;3.50;;;1.27;;
53751;SDS011;41095;53.090;6.692;2023-02-19T13:04:25;3.65;;;1.92;;
53751;SDS011;41095;53.090;6.692;2023-02-19T13:07:14;2.00;;;1.55;;
53751;SDS011;41095;53.090;6.692;2023-02-19T13:09:52;1.23;;;1.10;;
53751;SDS011;41095;53.090;6.692;2023-02-19T13:12:27;0.95;;;0.90;;
53751;SDS011;41095;53.090;6.692;2023-02-19T13:14:58;3.03;;;1.10;;
53751;SDS011;41095;53.090;6.692;2023-02-19T13:17:31;1.52;;;1.10;;
53751;SDS011;41095;53.090;6.692;2023-02-19T13:20:24;2.22;;;1.38;;
53751;SDS011;41095;53.090;6.692;2023-02-19T13:23:00;1.95;;;1.20;;
53751;SDS011;41095;53.090;6.692;2023-02-19T13:31:34;1.88;;;1.05;;
53751;SDS011;41095;53.090;6.692;2023-02-19T13:37:07;1.88;;;0.90;;
53751;SDS011;41095;53.090;6.692;2023-02-19T13:39:35;1.20;;;0.88;;
53751;SDS011;41095;53.090;6.692;2023-02-19T13:42:01;1.48;;;0.98;;
53751;SDS011;41095;53.090;6.692;2023-02-19T13:44:29;1.10;;;1.00;;
53751;SDS011;41095;53.090;6.692;2023-02-19T13:46:56;2.50;;;1.20;;
53751;SDS011;41095;53.090;6.692;2023-02-19T13:51:56;1.67;;;1.08;;
53751;SDS011;41095;53.090;6.692;2023-02-19T13:59:50;0.98;;;0.63;;
53751;SDS011;41095;53.090;6.692;2023-02-19T14:02:23;2.28;;;0.75;;
53751;SDS011;41095;53.090;6.692;2023-02-19T14:04:53;1.80;;;0.85;;
53751;SDS011;41095;53.090;6.692;2023-02-19T14:09:51;1.73;;;0.70;;
53751;SDS011;41095;53.090;6.692;2023-02-19T14:12:18;0.95;;;0.70;;
53751;SDS011;41095;53.090;6.692;2023-02-19T14:14:46;0.75;;;0.60;;
53751;SDS011;41095;53.090;6.692;2023-02-19T14:33:13;0.65;;;0.57;;
53751;SDS011;41095;53.090;6.692;2023-02-19T14:35:42;1.08;;;0.85;;
53751;SDS011;41095;53.090;6.692;2023-02-19T14:38:21;2.95;;;1.05;;
53751;SDS011;41095;53.090;6.692;2023-02-19T14:40:54;3.15;;;1.20;;
53751;SDS011;41095;53.090;6.692;2023-02-19T14:43:21;3.33;;;1.35;;
53751;SDS011;41095;53.090;6.692;2023-02-19T14:45:54;4.65;;;1.50;;
53751;SDS011;41095;53.090;6.692;2023-02-19T14:51:03;1.70;;;1.30;;
53751;SDS011;41095;53.090;6.692;2023-02-19T14:53:36;2.67;;;1.40;;
53751;SDS011;41095;53.090;6.692;2023-02-19T14:56:04;3.50;;;1.50;;
53751;SDS011;41095;53.090;6.692;2023-02-19T14:58:40;1.70;;;1.35;;
53751;SDS011;41095;53.090;6.692;2023-02-19T15:01:06;1.63;;;1.52;;
53751;SDS011;41095;53.090;6.692;2023-02-19T15:03:52;2.38;;;1.30;;
53751;SDS011;41095;53.090;6.692;2023-02-19T15:06:18;1.38;;;1.20;;
53751;SDS011;41095;53.090;6.692;2023-02-19T15:08:45;4.60;;;2.30;;
53751;SDS011;41095;53.090;6.692;2023-02-19T15:11:15;3.22;;;1.55;;
53751;SDS011;41095;53.090;6.692;2023-02-19T15:13:46;2.22;;;1.67;;
53751;SDS011;41095;53.090;6.692;2023-02-19T15:16:20;3.33;;;1.63;;
53751;SDS011;41095;53.090;6.692;2023-02-19T15:18:49;2.88;;;1.02;;
53751;SDS011;41095;53.090;6.692;2023-02-19T15:21:23;2.17;;;1.35;;
53751;SDS011;41095;53.090;6.692;2023-02-19T15:23:57;5.90;;;1.65;;
53751;SDS011;41095;53.090;6.692;2023-02-19T15:26:29;2.50;;;1.40;;
53751;SDS011;41095;53.090;6.692;2023-02-19T15:29:01;2.03;;;1.35;;
53751;SDS011;41095;53.090;6.692;2023-02-19T15:31:33;2.55;;;1.77;;
53751;SDS011;41095;53.090;6.692;2023-02-19T15:33:58;3.80;;;1.40;;
53751;SDS011;41095;53.090;6.692;2023-02-19T15:36:31;3.42;;;1.63;;
53751;SDS011;41095;53.090;6.692;2023-02-19T15:38:59;2.38;;;1.17;;
53751;SDS011;41095;53.090;6.692;2023-02-19T15:41:27;4.63;;;1.63;;
53751;SDS011;41095;53.090;6.692;2023-02-19T15:46:33;2.25;;;2.08;;
53751;SDS011;41095;53.090;6.692;2023-02-19T15:49:02;4.88;;;2.67;;
53751;SDS011;41095;53.090;6.692;2023-02-19T15:51:31;4.40;;;2.03;;
53751;SDS011;41095;53.090;6.692;2023-02-19T15:54:29;2.90;;;1.60;;
53751;SDS011;41095;53.090;6.692;2023-02-19T15:57:25;2.92;;;2.20;;
53751;SDS011;41095;53.090;6.692;2023-02-19T16:00:13;4.57;;;2.80;;
53751;SDS011;41095;53.090;6.692;2023-02-19T16:02:44;6.25;;;3.10;;
53751;SDS011;41095;53.090;6.692;2023-02-19T16:05:11;4.10;;;2.80;;
53751;SDS011;41095;53.090;6.692;2023-02-19T16:07:40;4.45;;;1.80;;
53751;SDS011;41095;53.090;6.692;2023-02-19T16:12:56;6.80;;;2.30;;
53751;SDS011;41095;53.090;6.692;2023-02-19T16:15:22;3.30;;;1.20;;
53751;SDS011;41095;53.090;6.692;2023-02-19T16:17:48;2.78;;;1.20;;
53751;SDS011;41095;53.090;6.692;2023-02-19T16:20:19;4.00;;;1.38;;
53751;SDS011;41095;53.090;6.692;2023-02-19T16:23:00;2.05;;;1.35;;
53751;SDS011;41095;53.090;6.692;2023-02-19T16:25:29;3.03;;;1.67;;
53751;SDS011;41095;53.090;6.692;2023-02-19T16:30:36;2.30;;;1.38;;
53751;SDS011;41095;53.090;6.692;2023-02-19T16:35:57;7.22;;;2.22;;
53751;SDS011;41095;53.090;6.692;2023-02-19T16:38:39;3.00;;;2.10;;
53751;SDS011;41095;53.090;6.692;2023-02-19T16:41:09;4.68;;;2.30;;
53751;SDS011;41095;53.090;6.692;2023-02-19T16:43:37;4.82;;;1.92;;
53751;SDS011;41095;53.090;6.692;2023-02-19T16:46:06;4.55;;;1.88;;
53751;SDS011;41095;53.090;6.692;2023-02-19T16:48:34;3.67;;;2.20;;
53751;SDS011;41095;53.090;6.692;2023-02-19T16:51:00;5.40;;;2.10;;
53751;SDS011;41095;53.090;6.692;2023-02-19T16:53:28;7.70;;;2.40;;
53751;SDS011;41095;53.090;6.692;2023-02-19T16:55:54;3.15;;;1.50;;
53751;SDS011;41095;53.090;6.692;2023-02-19T16:58:20;5.55;;;2.45;;
53751;SDS011;41095;53.090;6.692;2023-02-19T17:00:45;4.03;;;1.83;;
53751;SDS011;41095;53.090;6.692;2023-02-19T17:03:13;3.78;;;1.63;;
53751;SDS011;41095;53.090;6.692;2023-02-19T17:05:41;3.03;;;2.10;;
53751;SDS011;41095;53.090;6.692;2023-02-19T17:08:16;3.90;;;1.85;;
53751;SDS011;41095;53.090;6.692;2023-02-19T17:11:01;5.07;;;1.60;;
53751;SDS011;41095;53.090;6.692;2023-02-19T17:13:29;1.67;;;1.30;;
53751;SDS011;41095;53.090;6.692;2023-02-19T17:15:55;5.55;;;2.15;;
53751;SDS011;41095;53.090;6.692;2023-02-19T17:18:21;2.20;;;1.45;;
53751;SDS011;41095;53.090;6.692;2023-02-19T17:20:53;3.25;;;1.60;;
53751;SDS011;41095;53.090;6.692;2023-02-19T17:23:22;4.75;;;1.88;;
53751;SDS011;41095;53.090;6.692;2023-02-19T17:25:48;3.05;;;1.60;;
53751;SDS011;41095;53.090;6.692;2023-02-19T17:28:13;3.28;;;2.10;;
53751;SDS011;41095;53.090;6.692;2023-02-19T17:30:39;2.95;;;1.60;;
53751;SDS011;41095;53.090;6.692;2023-02-19T17:33:05;7.82;;;2.17;;
53751;SDS011;41095;53.090;6.692;2023-02-19T17:35:31;2.17;;;1.73;;
53751;SDS011;41095;53.090;6.692;2023-02-19T17:37:56;3.92;;;1.85;;
53751;SDS011;41095;53.090;6.692;2023-02-19T17:40:23;6.55;;;2.00;;
53751;SDS011;41095;53.090;6.692;2023-02-19T17:42:54;9.05;;;2.70;;
53751;SDS011;41095;53.090;6.692;2023-02-19T17:45:19;4.35;;;1.73;;
53751;SDS011;41095;53.090;6.692;2023-02-19T17:47:45;4.63;;;1.77;;
53751;SDS011;41095;53.090;6.692;2023-02-19T17:50:19;3.97;;;1.83;;